MRPV

Tobias Bolanos International Airport

San Jose, Costa Rica
MRPV 170500Z 1706/1806 10009KT 9999 FEW030 TX26/1718Z TN20/1711Z
Issued Valid From Valid To
Nov-17 @ 05:00 UTC
(4 hours ago)
Nov-17 @ 06:00 UTC
(3 hours ago)
Nov-18 @ 06:00 UTC
(in 21 hours)
Nov-17 @ 06:00 to Nov-18 @ 06:00
MRPV 170500Z 1706/1806 10009KT 9999 FEW030 TX26/1718Z TN20/1711Z
Wind Visibility Clouds
100° at 9 knots 10,000+ meters
  • Few at 3,000' AGL
MRPV 170500Z 1706/1806 10009KT 9999 FEW030 TX26/1718Z TN20/1711Z
Issued Nov-17 @ 05:00 UTC
(4 hours ago)
Valid From Nov-17 @ 06:00 UTC
(3 hours ago)
Valid To Nov-18 @ 06:00 UTC
(in 21 hours)
Nov-17 @ 06:00 - Nov-18 @ 06:00
Wind Visibility
100° at 9 knots 10,000+ meters
Clouds
  • Few at 3,000' AGL